Tiempo atmosférico en la estación meteorológica de Ballobar, Huesca (178 m.)



Fecha
DESCASC
Temp. máxima en grados centígrados (hora)
DESCASC
Temp. mínima en grados centígrados (hora)
DESCASC
Temp. media en grados centígrados
DESCASC
Racha de viento máxima en m/sg (hora)
DESCASC
Velocidad máxima media en intervalos de 10 minutos(hora)
DESCASC
Precipitaciones diarias en mm
DESCASC
Precipitaciones de 00:00 a 06:00 en mm
DESCASC
Precipitaciones de 06:00 a 12:00 en mm
DESCASC
Precipitaciones de 12:00 a 18:00 en mm
DESCASC
Precipitaciones de 18:00 a 24:00 en mm
DESCASC
10-07-2020 34.6 (17:10) 19 (07:00) 26.8 11.67 (17:40) 6.94 (17:40) 1.6 1.6 0 0 0
09-07-2020 34.1 (17:30) 20.5 (07:00) 27.3 8.33 (01:20) 5.83 (01:30) 0 0 0 0 0
08-07-2020 33.5 (17:40) 16.9 (07:00) 25.2 8.89 (18:40) 5.83 (14:30) 0 0 0 0 0
07-07-2020 31.8 (17:30) 12.9 (06:50) 22.3 6.39 (12:10) 3.89 (20:20) 0 0 0 0 0
06-07-2020 35.1 (18:00) 20.2 (00:00) 27.6 12.22 (19:40) 7.78 (19:40) 0 0 0 0 0
05-07-2020 33.7 (17:50) 15.3 (00:00) 24.5 5.28 (14:10) 3.61 (16:00) 0 0 0 0 0
04-07-2020 30.5 (18:50) 11.7 (00:00) 21.1 7.5 (15:50) 3.89 (00:40) 0 0 0 0 0
03-07-2020 29.7 (18:30) 17.6 (04:10) 23.7 11.39 (17:00) 6.11 (08:50) 0.8 0.6 0.2 0 0
02-07-2020 32 (16:40) 19.6 (00:00) 25.8 12.22 (22:10) 8.61 (22:20) 0 0 0 0 0
01-07-2020 34.3 (19:30) 19.1 (00:00) 26.7 9.44 (21:10) 5 (00:10) 8.6 8.6 0 0 0
30-06-2020 32.9 (16:20) 21.8 (00:00) 27.4 13.33 (23:40) 7.78 (23:40) 2.2 0 0 0 2.2
29-06-2020 33.9 (17:40) 19.9 (00:00) 26.9 10.56 (21:30) 5.83 (19:10) 0 0 0 0 0
28-06-2020 34.3 (17:40) 20.8 (00:00) 27.5 8.89 (19:10) 6.11 (19:10) 0 0 0 0 0
27-06-2020 33.1 (17:20) 16.6 (00:00) 24.8 7.5 (16:00) 4.72 (21:10) 0 0 0 0 0
26-06-2020 -- (--) -- (--) -- -- (--) -- (--) -- -- -- 0 0
25-06-2020 -- (--) -- (--) -- -- (--) -- (--) -- 0 0 0 --
24-06-2020 32.5 (16:00) 17.6 (00:00) 25.1 13.33 (18:10) 7.78 (18:20) 0 0 0 0 0
23-06-2020 32.3 (16:40) 18.4 (00:00) 25.3 9.17 (16:40) 6.39 (16:50) 0 0 0 0 0
22-06-2020 31.5 (17:50) 16.7 (00:00) 24.1 9.72 (01:20) 6.39 (01:20) 0 0 0 0 0
21-06-2020 33.9 (18:10) 17 (00:00) 25.5 11.11 (19:40) 6.67 (19:00) 0 0 0 0 0
20-06-2020 30.7 (17:00) 15.4 (00:00) 23.1 8.33 (22:00) 5.83 (22:00) 0 0 0 0 0
19-06-2020 26.9 (17:30) 15.1 (00:00) 21 8.33 (19:20) 5.83 (19:20) 0 0 0 0 0
18-06-2020 24.9 (17:50) 13.8 (00:00) 19.3 7.78 (06:40) 5 (06:40) 11 3 8 0 0
17-06-2020 25.4 (18:10) 12.5 (00:00) 18.9 9.72 (17:40) 5 (17:30) 0 0 0 0 0
16-06-2020 23.1 (18:30) 15.5 (00:00) 19.3 10.83 (19:40) 4.72 (19:10) 10.2 2.6 2 2.2 3.4
15-06-2020 28.7 (19:10) 17.1 (00:00) 22.9 9.72 (14:30) 5 (02:20) 0 0 0 0 0
14-06-2020 28.2 (19:00) 12.2 (00:00) 20.2 6.39 (15:00) 3.89 (16:50) 0 0 0 0 0
13-06-2020 24.9 (17:20) 11.8 (00:00) 18.3 11.39 (17:00) 7.5 (00:10) 1.4 1.4 0 0 0
12-06-2020 24 (19:00) 13.7 (00:00) 18.8 13.61 (01:00) 7.78 (01:00) 6.4 6.2 0.2 0 0

Gráficas

Temp. máximas Temp. mínimas Temp. medias Precipitaciones Rachas de viento máximas Velocidades máximas media en intervalos de 10 minutos

Datos horarios

Fecha y hora oficial Temperatura (ºC) Velocidad del viento (km/h) Dirección del viento Racha (km/h) Dirección de racha Precipitación (mm) Presión (hPa) Tendencia (hPa) Humedad (%)
2020-07-11 23:00:00 26 6 Sudoeste 17 Sudoeste 0 -- -- 58
2020-07-11 22:00:00 27.3 6 Este 16 Este 0 -- -- 56
2020-07-11 21:00:00 30.3 13 Sudeste 30 Este 0 -- -- 48
2020-07-11 20:00:00 31.8 19 Este 27 Nordeste 0 -- -- 44
2020-07-11 19:00:00 33 11 Nordeste 22 Este 0 -- -- 38
2020-07-11 18:00:00 33.4 8 Sudeste 21 Sudoeste 0 -- -- 38
2020-07-11 17:00:00 32.5 9 Sur 22 Sudeste 0 -- -- 38
2020-07-11 16:00:00 31.5 13 Sudoeste 22 Sur 0 -- -- 41
2020-07-11 15:00:00 30.4 11 Este 20 Este 0 -- -- 46
2020-07-11 14:00:00 28.9 8 Nordeste 24 Este 0 -- -- 48
2020-07-11 13:00:00 27.8 9 Sur 19 Noroeste 0 -- -- 50
2020-07-11 12:00:00 26.1 9 Oeste 21 Oeste 0 -- -- 54
2020-07-11 11:00:00 24.4 10 Noroeste 19 Oeste 0 -- -- 57
2020-07-11 10:00:00 22.5 9 Noroeste 17 Noroeste 0 -- -- 62
2020-07-11 09:00:00 20.9 13 Noroeste 21 Oeste 0 -- -- 67
2020-07-11 08:00:00 19.6 11 Sudoeste 17 Sudoeste 0 -- -- 71
2020-07-11 07:00:00 18.5 11 Sudoeste 18 Oeste 0 -- -- 75
2020-07-11 06:00:00 18.7 10 Sudoeste 19 Oeste 0 -- -- 74
2020-07-11 05:00:00 19.2 13 Sudoeste 22 Oeste 0 -- -- 72
2020-07-11 04:00:00 19.9 12 Sudoeste 30 Oeste 0 -- -- 70
2020-07-11 03:00:00 20.7 21 Oeste 33 Oeste 0 -- -- 67
2020-07-11 02:00:00 22.3 18 Noroeste 28 Oeste 0 -- -- 63
2020-07-11 01:00:00 23.7 3 Oeste 9 Oeste 0 -- -- 55
2020-07-11 00:00:00 25.6 5 Nordeste 13 Nordeste 0 -- -- 49
2020-07-10 23:00:00 26.3 4 Noroeste 19 Nordeste 0 -- -- 47
2020-07-10 22:00:00 29 7 Este 21 Este 0 -- -- 39
2020-07-10 21:00:00 30.7 15 Este 25 Este 0 -- -- 33
2020-07-10 20:00:00 32.1 15 Este 27 Sudeste 0 -- -- 31
2020-07-10 19:00:00 33 19 Este 33 Sudeste 0 -- -- 25
2020-07-10 18:00:00 33.5 22 Este 42 Este 0 -- -- 30
2020-07-10 17:00:00 34.4 7 Sur 27 Sudeste 0 -- -- 33
2020-07-10 16:00:00 33.5 11 Sudoeste 31 Sur 0 -- -- 34
2020-07-10 15:00:00 32.7 13 Sur 27 Sudoeste 0 -- -- 36
2020-07-10 14:00:00 31.8 12 Sur 25 Sudoeste 0 -- -- 39
2020-07-10 13:00:00 30.1 9 Sudoeste 20 Sur 0 -- -- 45
2020-07-10 12:00:00 28.5 6 Sudoeste 17 Oeste 0 -- -- 51
2020-07-10 11:00:00 26.5 7 Nordeste 14 Nordeste 0 -- -- 60
2020-07-10 10:00:00 24.8 6 Nordeste 9 Nordeste 0 -- -- 67
2020-07-10 09:00:00 21.9 3 Nordeste 8 Oeste 0 -- -- 79
2020-07-10 08:00:00 19.4 3 Oeste 9 Oeste 0 -- -- 86
2020-07-10 07:00:00 19 6 Oeste 8 Noroeste 0 -- -- 88
2020-07-10 06:00:00 19.6 4 Oeste 9 Oeste 0 -- -- 86
2020-07-10 05:00:00 20.2 3 Oeste 8 Noroeste 0 -- -- 87
2020-07-10 04:00:00 20.4 6 Noroeste 8 Oeste 0 -- -- 88
2020-07-10 03:00:00 21.1 2 Noroeste 6 Oeste 0 -- -- 87
2020-07-10 02:00:00 22 2 Oeste 18 Noroeste 0 -- -- 83
2020-07-10 01:00:00 25.1 4 Nordeste 12 Nordeste 1.6 -- -- 65
2020-07-10 00:00:00 27.5 12 Oeste 30 Sudoeste 0 -- -- 54
2020-07-09 23:00:00 27.8 3 Sudeste 14 Sudeste 0 -- -- 57
2020-07-09 22:00:00 29.5 5 Sur 22 Sudeste 0 -- -- 55
2020-07-09 21:00:00 31.8 13 Sudeste 22 Este 0 -- -- 49
2020-07-09 20:00:00 33.7 6 Nordeste 12 Este 0 -- -- 41
2020-07-09 19:00:00 34 7 Nordeste 18 Este 0 -- -- 39
2020-07-09 18:00:00 34 14 Este 20 Este 0 -- -- 41
2020-07-09 17:00:00 33.5 9 Nordeste 17 Nordeste 0 -- -- 40
2020-07-09 16:00:00 32.7 9 Nordeste 19 Nordeste 0 -- -- 40
2020-07-09 15:00:00 31.6 9 Nordeste 20 Este 0 -- -- 44
2020-07-09 14:00:00 31.7 9 Este 19 Este 0 -- -- 44
2020-07-09 13:00:00 29.5 12 Este 22 Sudeste 0 -- -- 51
2020-07-09 12:00:00 28.5 14 Este 27 Este 0 -- -- 56
2020-07-09 11:00:00 27.5 14 Este 22 Este 0 -- -- 62
2020-07-09 10:00:00 25.6 11 Este 20 Este 0 -- -- 67
2020-07-09 09:00:00 23.1 6 Nordeste 10 Este 0 -- -- 81
2020-07-09 08:00:00 21.8 6 Nordeste 12 Nordeste 0 -- -- 86
2020-07-09 07:00:00 20.5 7 Nordeste 15 Sudoeste 0 -- -- 89
2020-07-09 06:00:00 21.1 13 Sudoeste 18 Sudoeste 0 -- -- 85
2020-07-09 05:00:00 21.6 3 Noroeste 10 Norte 0 -- -- 85
2020-07-09 04:00:00 22.4 8 Nordeste 20 Este 0 -- -- 83
2020-07-09 03:00:00 23.4 6 Norte 13 Nordeste 0 -- -- 78
2020-07-09 02:00:00 23.6 12 Nordeste 30 Nordeste 0 -- -- 75
2020-07-09 01:00:00 23.7 15 Nordeste 23 Nordeste 0 -- -- 76
2020-07-09 00:00:00 24.2 12 Este 18 Este 0 -- -- 77
2020-07-08 23:00:00 24.9 12 Nordeste 27 Este 0 -- -- 75
2020-07-08 22:00:00 26 16 Nordeste 28 Este 0 -- -- 71
2020-07-08 21:00:00 28.4 14 Sur 26 Sur 0 -- -- 61
2020-07-08 20:00:00 30.4 15 Sudeste 27 Sur 0 -- -- 54
2020-07-08 19:00:00 31.7 15 Sur 32 Este 0 -- -- 50
2020-07-08 18:00:00 33.1 17 Este 27 Nordeste 0 -- -- 45
2020-07-08 17:00:00 33.2 12 Este 20 Nordeste 0 -- -- 40
2020-07-08 16:00:00 31.8 15 Este 25 Nordeste 0 -- -- 40
2020-07-08 15:00:00 31 17 Este 30 Este 0 -- -- 45
2020-07-08 14:00:00 30.5 12 Este 24 Nordeste 0 -- -- 48
2020-07-08 13:00:00 29.5 7 Norte 24 Este 0 -- -- 51
2020-07-08 12:00:00 27.4 10 Nordeste 19 Este 0 -- -- 58
2020-07-08 11:00:00 26.1 8 Este 18 Este 0 -- -- 63
2020-07-08 10:00:00 24.3 12 Este 17 Este 0 -- -- 69
2020-07-08 09:00:00 21.7 6 Nordeste 11 Este 0 -- -- 73
2020-07-08 08:00:00 19.1 3 Nordeste 5 Este 0 -- -- 78
2020-07-08 07:00:00 16.9 4 Nordeste 9 Este 0 -- -- 84
2020-07-08 06:00:00 18 2 Este 6 Nordeste 0 -- -- 80
2020-07-08 05:00:00 19.3 2 Norte 9 Nordeste 0 -- -- 77
2020-07-08 04:00:00 19.9 4 Este 9 Este 0 -- -- 73
2020-07-08 03:00:00 19.9 3 Nordeste 7 Nordeste 0 -- -- 70
2020-07-08 02:00:00 20.9 0 Calma 8 Nordeste 0 -- -- 68
2020-07-08 01:00:00 21.9 0 Calma 5 Noroeste 0 -- -- 65
2020-07-08 00:00:00 23.2 3 Norte 8 Nordeste 0 -- -- 59
2020-07-07 23:00:00 25.3 4 Norte 15 Este 0 -- -- 51
2020-07-07 22:00:00 27.2 4 Este 12 Este 0 -- -- 46
2020-07-07 21:00:00 28.8 9 Nordeste 21 Este 0 -- -- 42
2020-07-07 20:00:00 30.5 9 Este 15 Nordeste 0 -- -- 38
2020-07-07 19:00:00 31 9 Este 17 Este 0 -- -- 36
2020-07-07 18:00:00 31.1 8 Nordeste 15 Nordeste 0 -- -- 35
2020-07-07 17:00:00 31.2 8 Noroeste 23 Oeste 0 -- -- 33
2020-07-07 16:00:00 29.7 7 Noroeste 19 Noroeste 0 -- -- 37
2020-07-07 15:00:00 28.1 8 Norte 18 Noroeste 0 -- -- 41
2020-07-07 14:00:00 26.3 10 Sudoeste 21 Oeste 0 -- -- 44
2020-07-07 13:00:00 24.1 11 Oeste 23 Oeste 0 -- -- 47
2020-07-07 12:00:00 22.6 11 Noroeste 22 Noroeste 0 -- -- 49
2020-07-07 11:00:00 21.5 6 Noroeste 21 Oeste 0 -- -- 52
2020-07-07 10:00:00 19.3 9 Sudoeste 19 Noroeste 0 -- -- 54
2020-07-07 09:00:00 17.7 8 Oeste 14 Noroeste 0 -- -- 59
2020-07-07 08:00:00 15.5 5 Sudoeste 9 Oeste 0 -- -- 65
2020-07-07 07:00:00 13.2 5 Oeste 10 Oeste 0 -- -- 74
2020-07-07 06:00:00 13.8 4 Oeste 12 Sudoeste 0 -- -- 72
2020-07-07 05:00:00 15 9 Sudoeste 14 Sudoeste 0 -- -- 67
2020-07-07 04:00:00 14.9 5 Oeste 9 Sudoeste 0 -- -- 70
2020-07-07 03:00:00 16 4 Oeste 9 Oeste 0 -- -- 68
2020-07-07 02:00:00 17.6 6 Oeste 13 Sudoeste 0 -- -- 64
2020-07-07 01:00:00 19.2 6 Sudoeste 14 Sudoeste 0 -- -- 62
2020-07-07 00:00:00 21.2 6 Oeste 20 Sudoeste 0 -- -- 58
2020-07-06 23:00:00 23.3 13 Oeste 30 Oeste 0 -- -- 54
2020-07-06 22:00:00 25.6 23 Oeste 34 Oeste 0 -- -- 48
2020-07-06 21:00:00 29 13 Oeste 41 Oeste 0 -- -- 40
2020-07-06 20:00:00 31.3 25 Oeste 44 Oeste 0 -- -- 35
2020-07-06 19:00:00 33.3 26 Oeste 42 Oeste 0 -- -- 33
2020-07-06 18:00:00 35.1 18 Noroeste 33 Oeste 0 -- -- 31
2020-07-06 17:00:00 34.8 17 Oeste 31 Oeste 0 -- -- 32
2020-07-06 16:00:00 33.7 16 Oeste 25 Oeste 0 -- -- 38
2020-07-06 15:00:00 32.4 9 Oeste 26 Noroeste 0 -- -- 40
2020-07-06 14:00:00 31.1 11 Oeste 23 Oeste 0 -- -- 43
2020-07-06 13:00:00 29.4 10 Oeste 25 Oeste 0 -- -- 47
2020-07-06 12:00:00 27.4 13 Oeste 22 Noroeste 0 -- -- 50
2020-07-06 11:00:00 25.8 13 Noroeste 26 Noroeste 0 -- -- 54
2020-07-06 10:00:00 23.7 17 Oeste 31 Oeste 0 -- -- 59
2020-07-06 09:00:00 22.4 17 Oeste 28 Oeste 0 -- -- 62
2020-07-06 08:00:00 21 13 Oeste 22 Sudoeste 0 -- -- 66
2020-07-06 07:00:00 20.2 12 Oeste 22 Oeste 0 -- -- 69
2020-07-06 06:00:00 20.7 10 Oeste 22 Oeste 0 -- -- 69
2020-07-06 05:00:00 21.1 9 Sudoeste 13 Sudoeste 0 -- -- 69
2020-07-06 04:00:00 21.6 4 Sur 10 Oeste 0 -- -- 69
2020-07-06 03:00:00 22.1 3 Noroeste 7 Oeste 0 -- -- 70
2020-07-06 02:00:00 23.1 0 Calma 9 Noroeste 0 -- -- 66
2020-07-06 01:00:00 24.7 0 Calma 8 Sudoeste 0 -- -- 59
2020-07-06 00:00:00 26.5 8 Oeste 12 Oeste 0 -- -- 53
2020-07-05 23:00:00 27 2 Noroeste 5 Sur 0 -- -- 42
2020-07-05 22:00:00 29 0 Calma 10 Nordeste 0 -- -- 38
2020-07-05 21:00:00 31.8 9 Este 12 Este 0 -- -- 33
2020-07-05 20:00:00 33 7 Nordeste 12 Nordeste 0 -- -- 30
2020-07-05 19:00:00 33.6 7 Nordeste 16 Este 0 -- -- 29
2020-07-05 18:00:00 33.7 11 Este 16 Este 0 -- -- 29
2020-07-05 17:00:00 33.2 9 Nordeste 17 Nordeste 0 -- -- 30
2020-07-05 16:00:00 32.1 13 Este 19 Este 0 -- -- 32
2020-07-05 15:00:00 31.1 10 Nordeste 19 Este 0 -- -- 34
2020-07-05 14:00:00 30.1 8 Nordeste 16 Este 0 -- -- 37
2020-07-05 13:00:00 28.4 8 Este 15 Este 0 -- -- 41
2020-07-05 12:00:00 26.8 7 Este 15 Nordeste 0 -- -- 46
2020-07-05 11:00:00 24.5 7 Nordeste 13 Nordeste 0 -- -- 54
2020-07-05 10:00:00 23.3 5 Este 10 Nordeste 0 -- -- 55
2020-07-05 09:00:00 20.8 4 Este 9 Norte 0 -- -- 60
2020-07-05 08:00:00 17.8 5 Oeste 12 Oeste 0 -- -- 65
2020-07-05 07:00:00 15.7 8 Oeste 13 Oeste 0 -- -- 75
2020-07-05 06:00:00 15.3 4 Oeste 10 Oeste 0 -- -- 79
2020-07-05 05:00:00 16.2 5 Oeste 10 Oeste 0 -- -- 78
2020-07-05 04:00:00 17 5 Oeste 9 Oeste 0 -- -- 72
2020-07-05 03:00:00 17.8 5 Oeste 9 Oeste 0 -- -- 71
2020-07-05 02:00:00 19.2 2 Oeste 6 Noroeste 0 -- -- 68
2020-07-05 01:00:00 20.4 0 Calma 5 Este 0 -- -- 62
2020-07-05 00:00:00 21.7 0 Calma 7 Oeste 0 -- -- 55
2020-07-04 23:00:00 23.8 0 Calma 5 Sudeste 0 -- -- 48
2020-07-04 22:00:00 25.9 0 Calma 9 Este 0 -- -- 40
2020-07-04 21:00:00 29.1 8 Este 14 Este 0 -- -- 31
2020-07-04 20:00:00 29.9 9 Este 14 Este 0 -- -- 32
2020-07-04 19:00:00 30.5 6 Este 16 Nordeste 0 -- -- 31
2020-07-04 18:00:00 30 9 Nordeste 20 Nordeste 0 -- -- 31
2020-07-04 17:00:00 29.8 6 Norte 19 Oeste 0 -- -- 33
2020-07-04 16:00:00 28.8 9 Noroeste 27 Noroeste 0 -- -- 35
2020-07-04 15:00:00 27.8 10 Noroeste 20 Noroeste 0 -- -- 39
2020-07-04 14:00:00 25.9 11 Este 20 Este 0 -- -- 43
2020-07-04 13:00:00 24.5 9 Este 19 Nordeste 0 -- -- 47
2020-07-04 12:00:00 22.8 6 Norte 16 Este 0 -- -- 48
2020-07-04 11:00:00 21 5 Norte 14 Noroeste 0 -- -- 53
2020-07-04 10:00:00 19.7 7 Este 24 Sudoeste 0 -- -- 58
2020-07-04 09:00:00 17.5 9 Sudoeste 17 Oeste 0 -- -- 61
2020-07-04 08:00:00 14.6 5 Sudoeste 9 Oeste 0 -- -- 70
2020-07-04 07:00:00 12.1 5 Noroeste 9 Oeste 0 -- -- 79
2020-07-04 06:00:00 12.3 4 Oeste 8 Oeste 0 -- -- 79
2020-07-04 05:00:00 13.9 5 Oeste 17 Oeste 0 -- -- 73
2020-07-04 04:00:00 15.9 12 Oeste 17 Oeste 0 -- -- 65
2020-07-04 03:00:00 16.1 7 Sudoeste 17 Sudoeste 0 -- -- 65
2020-07-04 02:00:00 17.3 9 Oeste 15 Sudoeste 0 -- -- 62
2020-07-04 01:00:00 19.1 6 Sudoeste 19 Oeste 0 -- -- 53
2020-07-04 00:00:00 20.9 6 Sur 25 Oeste 0 -- -- 49
2020-07-03 23:00:00 20.8 9 Oeste 17 Sudoeste 0 -- -- 45
2020-07-03 22:00:00 23.8 11 Sudoeste 21 Oeste 0 -- -- 38
2020-07-03 21:00:00 26.3 15 Oeste 29 Oeste 0 -- -- 34
2020-07-03 20:00:00 28.6 16 Oeste 31 Oeste 0 -- -- 29
2020-07-03 19:00:00 29.2 17 Oeste 28 Noroeste 0 -- -- 28
2020-07-03 18:00:00 29.3 15 Noroeste 34 Oeste 0 -- -- 29
2020-07-03 17:00:00 28.8 19 Oeste 41 Oeste 0 -- -- 30
2020-07-03 16:00:00 28.1 20 Oeste 35 Noroeste 0 -- -- 32
2020-07-03 15:00:00 27.4 17 Noroeste 32 Noroeste 0 -- -- 37
2020-07-03 14:00:00 26.8 10 Noroeste 27 Noroeste 0 -- -- 39
2020-07-03 13:00:00 24.9 17 Oeste 31 Noroeste 0 -- -- 42
2020-07-03 12:00:00 23.6 12 Oeste 29 Noroeste 0 -- -- 46
2020-07-03 11:00:00 21.7 17 Noroeste 28 Oeste 0 -- -- 51
2020-07-03 10:00:00 20 15 Oeste 30 Noroeste 0 -- -- 58
2020-07-03 09:00:00 18.7 20 Oeste 35 Oeste 0.2 -- -- 61
2020-07-03 08:00:00 17.7 14 Oeste 26 Oeste 0 -- -- 65
2020-07-03 07:00:00 17.8 11 Oeste 28 Oeste 0 -- -- 66
2020-07-03 06:00:00 18 8 Oeste 19 Oeste 0 -- -- 71
2020-07-03 05:00:00 18.1 10 Oeste 17 Oeste 0 -- -- 69
2020-07-03 04:00:00 17.7 9 Oeste 19 Oeste 0 -- -- 74
2020-07-03 03:00:00 18.9 5 Sudoeste 21 Oeste 0.6 -- -- 74
2020-07-03 02:00:00 20.3 12 Noroeste 26 Noroeste 0 -- -- 59
2020-07-03 01:00:00 21.6 10 Oeste 31 Oeste 0 -- -- 56
2020-07-03 00:00:00 22.7 15 Oeste 42 Oeste 0 -- -- 54
2020-07-02 23:00:00 24.1 23 Oeste 44 Oeste 0 -- -- 52
2020-07-02 22:00:00 25.9 27 Oeste 41 Noroeste 0 -- -- 46
2020-07-02 21:00:00 28.7 22 Oeste 33 Noroeste 0 -- -- 44
2020-07-02 20:00:00 30.9 0 Calma 9 Nordeste 0 -- -- 46
2020-07-02 19:00:00 31.7 8 Nordeste 13 Nordeste 0 -- -- 43
2020-07-02 18:00:00 31.5 7 Nordeste 18 Norte 0 -- -- 44
2020-07-02 17:00:00 31.9 7 Norte 17 Noroeste 0 -- -- 45
2020-07-02 16:00:00 30.8 10 Nordeste 19 Oeste 0 -- -- 45
2020-07-02 15:00:00 30.6 6 Sudeste 18 Oeste 0 -- -- 45
2020-07-02 14:00:00 29.4 13 Sudoeste 26 Sudoeste 0 -- -- 47
2020-07-02 13:00:00 27.8 11 Sudoeste 21 Sur 0 -- -- 53
2020-07-02 12:00:00 26.9 8 Oeste 22 Sudoeste 0 -- -- 57
2020-07-02 11:00:00 26.2 7 Sur 15 Sudoeste 0 -- -- 59
2020-07-02 10:00:00 24.6 8 Sur 17 Sur 0 -- -- 64
2020-07-02 09:00:00 22.6 6 Sudoeste 14 Sudoeste 0 -- -- 71
2020-07-02 08:00:00 20.2 9 Sudoeste 19 Sudoeste 0 -- -- 80
2020-07-02 07:00:00 19.6 9 Sudoeste 14 Sudoeste 0 -- -- 81
2020-07-02 06:00:00 20.6 13 Sudoeste 18 Sudoeste 0 -- -- 77
2020-07-02 05:00:00 21.7 10 Oeste 24 Noroeste 0 -- -- 71
2020-07-02 04:00:00 23.1 18 Noroeste 38 Oeste 0 -- -- 63
2020-07-02 03:00:00 23.2 14 Oeste 21 Oeste 0 -- -- 65
2020-07-02 02:00:00 23.8 3 Noroeste 8 Oeste 0 -- -- 63
2020-07-02 01:00:00 24.9 4 Sudoeste 15 Oeste 0 -- -- 59
2020-07-02 00:00:00 24.8 8 Oeste 13 Oeste 0 -- -- 59
2020-07-01 23:00:00 26.4 3 Oeste 9 Sudoeste 0 -- -- 52
2020-07-01 22:00:00 29.5 7 Noroeste 34 Noroeste 0 -- -- 38
2020-07-01 21:00:00 32 5 Oeste 8 Sudoeste 0 -- -- 49
2020-07-01 20:00:00 33.4 4 Este 10 Nordeste 0 -- -- 41
2020-07-01 19:00:00 34 7 Este 13 Nordeste 0 -- -- 40
2020-07-01 18:00:00 34.2 7 Nordeste 18 Este 0 -- -- 40
2020-07-01 17:00:00 33.8 9 Nordeste 17 Este 0 -- -- 42
2020-07-01 16:00:00 33.3 10 Este 15 Nordeste 0 -- -- 44
2020-07-01 15:00:00 32 6 Nordeste 17 Este 0 -- -- 51
2020-07-01 14:00:00 31 7 Nordeste 21 Este 0 -- -- 54
2020-07-01 13:00:00 29.4 8 Nordeste 19 Nordeste 0 -- -- 59
2020-07-01 12:00:00 28 8 Nordeste 16 Nordeste 0 -- -- 66
2020-07-01 11:00:00 26.6 11 Este 17 Nordeste 0 -- -- 69
2020-07-01 10:00:00 24.5 9 Nordeste 14 Nordeste 0 -- -- 76
2020-07-01 09:00:00 22.5 5 Nordeste 10 Nordeste 0 -- -- 83
2020-07-01 08:00:00 20.7 3 Este 6 Este 0 -- -- 93
2020-07-01 07:00:00 19.1 2 Oeste 6 Noroeste 0 -- -- 95
2020-07-01 06:00:00 19.4 0 Calma 6 Noroeste 0 -- -- 94
2020-07-01 05:00:00 19.6 5 Noroeste 7 Noroeste 0 -- -- 93
2020-07-01 04:00:00 20.1 5 Sudeste 7 Este 0 -- -- 92
2020-07-01 03:00:00 20.8 2 Norte 12 Nordeste 0 -- -- 89
2020-07-01 02:00:00 21.2 7 Norte 33 Este 1.8 -- -- 88
2020-07-01 01:00:00 21.4 17 Nordeste 31 Oeste 6.8 -- -- 87
2020-07-01 00:00:00 22.8 19 Este 48 Este 1 -- -- 80
2020-06-30 23:00:00 24.1 7 Nordeste 18 Oeste 0.4 -- -- 78
2020-06-30 22:00:00 24.6 3 Nordeste 26 Este 0 -- -- 74
2020-06-30 21:00:00 25.8 10 Este 33 Este 0.8 -- -- 75
2020-06-30 20:00:00 29.3 15 Este 31 Este 0 -- -- 57
2020-06-30 19:00:00 31.1 14 Este 31 Este 0 -- -- 51
2020-06-30 18:00:00 31.6 20 Este 36 Este 0 -- -- 50
2020-06-30 17:00:00 32.1 24 Este 36 Este 0 -- -- 48
2020-06-30 16:00:00 32.5 20 Este 35 Nordeste 0 -- -- 46
2020-06-30 15:00:00 31.7 17 Este 32 Este 0 -- -- 49
2020-06-30 14:00:00 30.5 15 Este 28 Este 0 -- -- 49
2020-06-30 13:00:00 29.1 11 Este 22 Este 0 -- -- 50
2020-06-30 12:00:00 27.6 11 Sudeste 22 Este 0 -- -- 52
2020-06-30 11:00:00 26.6 8 Sudeste 18 Sur 0 -- -- 53
2020-06-30 10:00:00 24.6 6 Sur 14 Este 0 -- -- 61
2020-06-30 09:00:00 23.7 7 Este 11 Sudeste 0 -- -- 67
2020-06-30 08:00:00 22.4 5 Sur 8 Sur 0 -- -- 71
2020-06-30 07:00:00 21.8 5 Sur 11 Noroeste 0 -- -- 74
2020-06-30 06:00:00 22.4 3 Noroeste 9 Nordeste 0 -- -- 85
2020-06-30 05:00:00 22.4 5 Nordeste 8 Nordeste 0 -- -- 84
2020-06-30 04:00:00 22.7 5 Sudeste 15 Este 0 -- -- 82
2020-06-30 03:00:00 23.1 5 Este 13 Este 0 -- -- 80
2020-06-30 02:00:00 23.6 7 Este 11 Nordeste 0 -- -- 78
2020-06-30 01:00:00 24.5 2 Sudoeste 16 Sudeste 0 -- -- 74
2020-06-30 00:00:00 25.3 10 Sudeste 27 Sur 0 -- -- 72
2020-06-29 23:00:00 26.1 17 Sudoeste 27 Sudoeste 0 -- -- 70
2020-06-29 22:00:00 27.4 11 Sudeste 38 Sudeste 0 -- -- 65
2020-06-29 21:00:00 29.5 14 Sudeste 27 Sudeste 0 -- -- 59
2020-06-29 20:00:00 31.5 14 Sudeste 30 Sudeste 0 -- -- 54
2020-06-29 19:00:00 33.5 15 Este 26 Este 0 -- -- 47
2020-06-29 18:00:00 33.7 12 Nordeste 20 Nordeste 0 -- -- 42
2020-06-29 17:00:00 33.3 6 Nordeste 21 Este 0 -- -- 43
2020-06-29 16:00:00 32.7 9 Nordeste 19 Nordeste 0 -- -- 44
2020-06-29 15:00:00 31.8 8 Este 22 Este 0 -- -- 49
2020-06-29 14:00:00 30.6 10 Este 21 Este 0 -- -- 51
2020-06-29 13:00:00 29.7 13 Este 23 Este 0 -- -- 54
2020-06-29 12:00:00 27.7 8 Nordeste 17 Nordeste 0 -- -- 56
2020-06-29 11:00:00 26.7 5 Norte 14 Este 0 -- -- 58
2020-06-29 10:00:00 24.8 6 Nordeste 13 Nordeste 0 -- -- 64
2020-06-29 09:00:00 23.4 6 Este 9 Este 0 -- -- 69
2020-06-29 08:00:00 21.9 3 Este 11 Oeste 0 -- -- 70
2020-06-29 07:00:00 20.2 4 Sudoeste 10 Sudoeste 0 -- -- 76
2020-06-29 06:00:00 21.4 5 Sudoeste 13 Sur 0 -- -- 75
2020-06-29 05:00:00 22.4 3 Sur 12 Sur 0 -- -- 77
2020-06-29 04:00:00 22.3 0 Calma 4 Sur 0 -- -- 73
2020-06-29 03:00:00 23.2 0 Calma 18 Este 0 -- -- 68
2020-06-29 02:00:00 23.9 10 Este 18 Este 0 -- -- 66
2020-06-29 01:00:00 24.3 8 Este 15 Este 0 -- -- 72
2020-06-29 00:00:00 25.7 6 Nordeste 10 Nordeste 0 -- -- 67
2020-06-28 23:00:00 27.2 3 Este 15 Sudeste 0 -- -- 61
2020-06-28 22:00:00 28.5 7 Sudeste 22 Sudeste 0 -- -- 55
2020-06-28 21:00:00 30.3 10 Sudeste 26 Este 0 -- -- 54
2020-06-28 20:00:00 31.5 18 Este 32 Este 0 -- -- 52
2020-06-28 19:00:00 32.4 21 Este 31 Este 0 -- -- 49
2020-06-28 18:00:00 34.3 17 Este 28 Este 0 -- -- 41
2020-06-28 17:00:00 34.2 10 Nordeste 22 Este 0 -- -- 39
2020-06-28 16:00:00 34 6 Sudoeste 20 Sudoeste 0 -- -- 35
2020-06-28 15:00:00 33.1 7 Sudoeste 25 Sudeste 0 -- -- 41
2020-06-28 14:00:00 31.4 13 Este 24 Este 0 -- -- 49
2020-06-28 13:00:00 29.8 11 Este 19 Este 0 -- -- 53
2020-06-28 12:00:00 28.5 13 Este 22 Este 0 -- -- 56
2020-06-28 11:00:00 27.2 15 Este 26 Este 0 -- -- 60
2020-06-28 10:00:00 25.6 12 Este 18 Este 0 -- -- 67
2020-06-28 09:00:00 24.1 5 Nordeste 12 Nordeste 0 -- -- 73
2020-06-28 08:00:00 22.5 5 Este 10 Este 0 -- -- 78
2020-06-28 07:00:00 21 4 Nordeste 11 Este 0 -- -- 83
2020-06-28 06:00:00 20.9 0 Calma 8 Norte 0 -- -- 83
2020-06-28 05:00:00 21.5 4 Nordeste 15 Nordeste 0 -- -- 82
2020-06-28 04:00:00 22 10 Nordeste 22 Este 0 -- -- 81
2020-06-28 03:00:00 23 15 Este 24 Este 0 -- -- 75
2020-06-28 02:00:00 23 5 Nordeste 15 Nordeste 0 -- -- 76
2020-06-28 01:00:00 24.4 2 Noroeste 8 Sudoeste 0 -- -- 68
2020-06-28 00:00:00 25.5 6 Oeste 17 Sudeste 0 -- -- 64
2020-06-27 23:00:00 27 5 Sudeste 19 Sudeste 0 -- -- 59
2020-06-27 22:00:00 28.3 5 Sudeste 25 Este 0 -- -- 55
2020-06-27 21:00:00 30.8 14 Este 24 Nordeste 0 -- -- 45
2020-06-27 20:00:00 32 9 Este 14 Este 0 -- -- 37
2020-06-27 19:00:00 32.5 6 Nordeste 16 Este 0 -- -- 36
2020-06-27 18:00:00 32.7 8 Nordeste 17 Nordeste 0 -- -- 35
2020-06-27 17:00:00 32.2 9 Nordeste 21 Norte 0 -- -- 34
2020-06-27 16:00:00 32.2 14 Nordeste 27 Nordeste 0 -- -- 36
2020-06-27 15:00:00 31.2 9 Este 22 Norte 0 -- -- 43
2020-06-27 14:00:00 30.2 9 Este 18 Este 0 -- -- 44
2020-06-27 13:00:00 28.9 9 Nordeste 18 Nordeste 0 -- -- 46
2020-06-27 12:00:00 27.3 8 Este 15 Nordeste 0 -- -- 53
2020-06-27 11:00:00 26.3 6 Este 13 Nordeste 0 -- -- 56
2020-06-27 10:00:00 24 7 Nordeste 12 Este 0 -- -- 59
2020-06-27 09:00:00 21.8 8 Nordeste 12 Nordeste 0 -- -- 69
2020-06-27 08:00:00 18.9 2 Sudeste 4 Sudeste 0 -- -- 77
2020-06-27 07:00:00 16.8 0 Calma 6 Sudoeste 0 -- -- 82
2020-06-27 06:00:00 16.7 4 Oeste 6 Noroeste 0 -- -- 80
2020-06-27 05:00:00 17.4 3 Este 6 Este 0 -- -- 75
2020-06-27 04:00:00 18.6 2 Noroeste 5 Noroeste 0 -- -- 70
2020-06-27 03:00:00 20.1 0 Calma 5 Nordeste 0 -- -- 63
2020-06-27 02:00:00 21.3 2 Noroeste 8 Nordeste 0 -- -- 59
2020-06-27 01:00:00 22.8 8 Norte 19 Este 0 -- -- 54
2020-06-27 00:00:00 24.6 12 Este 25 Este 0 -- -- 48
2020-06-26 23:00:00 25.1 6 Nordeste 9 Nordeste 0 -- -- 46
2020-06-26 22:00:00 26.4 8 Este 41 Este 0 -- -- 41
2020-06-26 21:00:00 26.1 36 Este 51 Este 0 -- -- 43
2020-06-26 20:00:00 27.6 11 Este 27 Este 0 -- -- 40
2020-06-26 19:00:00 29.1 18 Este 36 Este 0 -- -- 36
2020-06-26 18:00:00 30.3 23 Este 42 Este 0 -- -- 34
2020-06-26 17:00:00 31.4 24 Este 43 Este 0 -- -- 33
2020-06-26 16:00:00 32.7 28 Este 44 Este 0 -- -- 32
2020-06-26 15:00:00 31.9 25 Este 43 Este 0 -- -- 34
2020-06-26 14:00:00 31.5 28 Este 45 Este 0 -- -- 33
2020-06-26 13:00:00 30.7 24 Este 34 Este 0 -- -- 38
2020-06-26 12:00:00 29.3 20 Este 30 Este 0 -- -- 38
2020-06-26 11:00:00 27.4 16 Este 23 Este 0 -- -- 47
2020-06-26 10:00:00 24.2 8 Nordeste -- -- -- -- -- 67
2020-06-26 09:00:00 -- -- -- -- -- -- -- -- --
2020-06-26 08:00:00 -- -- -- -- -- -- -- -- --
2020-06-26 07:00:00 -- -- -- -- -- -- -- -- --
2020-06-26 06:00:00 -- -- -- -- -- -- -- -- --
2020-06-26 05:00:00 -- -- -- -- -- -- -- -- --
2020-06-26 04:00:00 -- -- -- -- -- -- -- -- --
2020-06-26 03:00:00 -- -- -- -- -- -- -- -- --
2020-06-26 02:00:00 -- -- -- -- -- -- -- -- --
2020-06-26 01:00:00 -- -- -- -- -- -- -- -- --
2020-06-26 00:00:00 -- -- -- -- -- -- -- -- --
2020-06-25 23:00:00 -- -- -- -- -- -- -- -- --
2020-06-25 22:00:00 -- -- -- -- -- -- -- -- --
2020-06-25 21:00:00 -- -- -- -- -- -- -- -- --
2020-06-25 20:00:00 28.6 9 Sudeste 34 Sudeste 0 -- -- 43
2020-06-25 19:00:00 30.4 15 Sur 31 Este 0 -- -- 41
2020-06-25 18:00:00 32.4 19 Este 35 Este 0 -- -- 35
2020-06-25 17:00:00 34 18 Este 35 Este 0 -- -- 33
2020-06-25 16:00:00 33.7 17 Este 30 Nordeste 0 -- -- 40
2020-06-25 15:00:00 32.7 12 Este 23 Este 0 -- -- 40
2020-06-25 14:00:00 31.9 16 Este 24 Este 0 -- -- 41
2020-06-25 13:00:00 30.1 12 Nordeste 20 Este 0 -- -- 46
2020-06-25 12:00:00 28.1 9 Este 16 Este 0 -- -- 53
2020-06-25 11:00:00 26.3 9 Nordeste 15 Este 0 -- -- 56
2020-06-25 10:00:00 24.2 5 Nordeste 14 Nordeste 0 -- -- 66
2020-06-25 09:00:00 21.9 7 Nordeste 11 Nordeste 0 -- -- 72
2020-06-25 08:00:00 19.9 2 Oeste 6 Nordeste 0 -- -- 79
2020-06-25 07:00:00 17.6 0 Calma 5 Noroeste 0 -- -- 86
2020-06-25 06:00:00 18 0 Calma 6 Oeste 0 -- -- 84
2020-06-25 05:00:00 18.3 3 Sudoeste 7 Oeste 0 -- -- 83
2020-06-25 04:00:00 18.8 3 Noroeste 5 Noroeste 0 -- -- 80
2020-06-25 03:00:00 19.8 0 Calma 4 Nordeste 0 -- -- 76
2020-06-25 02:00:00 20.3 0 Calma 6 Nordeste 0 -- -- 71
2020-06-25 01:00:00 21.5 4 Noroeste 9 Oeste 0 -- -- 64
2020-06-25 00:00:00 22.8 5 Oeste 9 Sudoeste 0 -- -- 59
2020-06-24 23:00:00 24.1 4 Sudeste 16 Nordeste 0 -- -- 55
2020-06-24 22:00:00 25.1 8 Este 42 Nordeste 0 -- -- 51
2020-06-24 21:00:00 26.3 26 Nordeste 43 Nordeste 0 -- -- 49
2020-06-24 20:00:00 29.3 7 Noroeste 24 Sudoeste 0 -- -- 38
2020-06-24 19:00:00 29.8 17 Sudoeste 48 Sudoeste 0 -- -- 37
2020-06-24 18:00:00 30.5 18 Sur 33 Sudoeste 0 -- -- 48
2020-06-24 17:00:00 31.8 10 Sudeste 36 Este 0 -- -- 43
2020-06-24 16:00:00 32.5 21 Este 34 Este 0 -- -- 44
2020-06-24 15:00:00 32 21 Este 33 Este 0 -- -- 45
2020-06-24 14:00:00 31.3 19 Este 28 Este 0 -- -- 45
2020-06-24 13:00:00 29.8 12 Este 22 Nordeste 0 -- -- 51
2020-06-24 12:00:00 27.9 13 Este 23 Este 0 -- -- 55
2020-06-24 11:00:00 26.1 13 Este 29 Este 0 -- -- 61
2020-06-24 10:00:00 24.2 15 Este 23 Este 0 -- -- 68
2020-06-24 09:00:00 21.7 8 Nordeste 12 Este 0 -- -- 70
2020-06-24 08:00:00 20.2 5 Este 10 Este 0 -- -- 75
2020-06-24 07:00:00 19 5 Norte 15 Este 0 -- -- 77
2020-06-24 06:00:00 18.3 11 Este 18 Nordeste 0 -- -- 80
2020-06-24 05:00:00 17.9 2 Noroeste 5 Noroeste 0 -- -- 83
2020-06-24 04:00:00 19.2 2 Sudeste 4 Noroeste 0 -- -- 77
2020-06-24 03:00:00 20.5 3 Este 10 Nordeste 0 -- -- 73
2020-06-24 02:00:00 21.2 4 Este 14 Este 0 -- -- 70
2020-06-24 01:00:00 21.9 9 Nordeste 21 Este 0 -- -- 68
2020-06-24 00:00:00 22.6 3 Este 12 Norte 0 -- -- 66
2020-06-23 23:00:00 23.4 7 Nordeste 17 Este 0 -- -- 66
2020-06-23 22:00:00 25.2 4 Sur 19 Este 0 -- -- 59
2020-06-23 21:00:00 27.6 9 Sudeste 20 Sudeste 0 -- -- 51
2020-06-23 20:00:00 28.9 17 Este 26 Este 0 -- -- 51
2020-06-23 19:00:00 30.8 16 Este 28 Este 0 -- -- 47
2020-06-23 18:00:00 32.1 20 Este 31 Este 0 -- -- 43
2020-06-23 17:00:00 32 22 Este 33 Este 0 -- -- 44
2020-06-23 16:00:00 31.8 20 Este 29 Este 0 -- -- 44
2020-06-23 15:00:00 31.5 18 Este 28 Este 0 -- -- 41
2020-06-23 14:00:00 30.6 19 Este 31 Este 0 -- -- 43
2020-06-23 13:00:00 28.8 14 Este 21 Nordeste 0 -- -- 49
2020-06-23 12:00:00 27 14 Este 21 Este 0 -- -- 56
2020-06-23 11:00:00 25.5 13 Este 19 Este 0 -- -- 58
2020-06-23 10:00:00 24.3 13 Este 22 Este 0 -- -- 66
2020-06-23 09:00:00 22.1 10 Nordeste 14 Nordeste 0 -- -- 74
2020-06-23 08:00:00 19.5 11 Nordeste 17 Este 0 -- -- 81
2020-06-23 07:00:00 18.6 0 Calma 12 Este 0 -- -- 83
2020-06-23 06:00:00 19.1 5 Nordeste 20 Este 0 -- -- 81
2020-06-23 05:00:00 19.7 10 Este 17 Sudeste 0 -- -- 78
2020-06-23 04:00:00 20 10 Nordeste 17 Este 0 -- -- 76
2020-06-23 03:00:00 20.6 8 Este 22 Este 0 -- -- 74
2020-06-23 02:00:00 21.7 8 Nordeste 15 Este 0 -- -- 72
2020-06-23 01:00:00 22.2 0 Calma 10 Sur 0 -- -- 68
2020-06-23 00:00:00 24 9 Sudoeste 15 Sudoeste 0 -- -- 61
2020-06-22 23:00:00 25.2 2 Oeste 10 Este 0 -- -- 61
2020-06-22 22:00:00 27.2 8 Este 22 Este 0 -- -- 58
2020-06-22 21:00:00 30 14 Este 22 Este 0 -- -- 37
2020-06-22 20:00:00 31 11 Este 15 Este 0 -- -- 38
2020-06-22 19:00:00 31.4 8 Nordeste 13 Este 0 -- -- 38
2020-06-22 18:00:00 31.5 9 Este 17 Este 0 -- -- 38
2020-06-22 17:00:00 31.2 9 Nordeste 17 Nordeste 0 -- -- 38
2020-06-22 16:00:00 31 9 Este 17 Nordeste 0 -- -- 37
2020-06-22 15:00:00 29.6 10 Este 17 Este 0 -- -- 41
2020-06-22 14:00:00 28.8 9 Este 19 Este 0 -- -- 44
2020-06-22 13:00:00 27.7 6 Sur 17 Oeste 0 -- -- 44
2020-06-22 12:00:00 25.8 6 Nordeste 25 Sudoeste 0 -- -- 48
2020-06-22 11:00:00 24.1 8 Oeste 19 Oeste 0 -- -- 52
2020-06-22 10:00:00 22.1 13 Noroeste 26 Oeste 0 -- -- 56
2020-06-22 09:00:00 20.6 14 Oeste 25 Oeste 0 -- -- 59
2020-06-22 08:00:00 19.1 7 Sudoeste 15 Oeste 0 -- -- 65
2020-06-22 07:00:00 17 4 Oeste 8 Sudoeste 0 -- -- 73
2020-06-22 06:00:00 17.8 6 Oeste 13 Oeste 0 -- -- 69
2020-06-22 05:00:00 19.1 6 Sudoeste 15 Oeste 0 -- -- 62
2020-06-22 04:00:00 19.7 5 Sudoeste 15 Oeste 0 -- -- 59
2020-06-22 03:00:00 20.5 5 Oeste 24 Noroeste 0 -- -- 55
2020-06-22 02:00:00 22.8 13 Noroeste 35 Oeste 0 -- -- 46
2020-06-22 01:00:00 23.8 19 Oeste 33 Oeste 0 -- -- 44
2020-06-22 00:00:00 24.7 17 Oeste 26 Oeste 0 -- -- 43
2020-06-21 23:00:00 24.6 12 Oeste 21 Sudoeste 0 -- -- 39
2020-06-21 22:00:00 27.6 12 Oeste 28 Oeste 0 -- -- 32
2020-06-21 21:00:00 30.1 13 Oeste 33 Oeste 0 -- -- 29
2020-06-21 20:00:00 32.4 21 Oeste 40 Oeste 0 -- -- 25
2020-06-21 19:00:00 33.5 24 Oeste 36 Oeste 0 -- -- 24
2020-06-21 18:00:00 33.7 21 Oeste 36 Oeste 0 -- -- 25
2020-06-21 17:00:00 33.8 17 Noroeste 30 Noroeste 0 -- -- 26
2020-06-21 16:00:00 32.9 19 Noroeste 31 Noroeste 0 -- -- 28
2020-06-21 15:00:00 31.6 13 Oeste 27 Noroeste 0 -- -- 37
2020-06-21 14:00:00 30.1 4 Este 21 Sudoeste 0 -- -- 42
2020-06-21 13:00:00 28.7 4 Sudeste 17 Sudoeste 0 -- -- 45
2020-06-21 12:00:00 26.4 5 Norte 13 Este 0 -- -- 49
2020-06-21 11:00:00 24 6 Este 13 Este 0 -- -- 71
2020-06-21 10:00:00 21.6 5 Este 10 Este 0 -- -- 82
2020-06-21 09:00:00 19.3 4 Nordeste 6 Nordeste 0 -- -- 90
2020-06-21 08:00:00 18.3 0 Calma 4 Sur 0 -- -- 92
2020-06-21 07:00:00 17.2 0 Calma 4 Oeste 0 -- -- 93
2020-06-21 06:00:00 17.2 0 Calma 4 Oeste 0 -- -- 92
2020-06-21 05:00:00 18 0 Calma 5 Noroeste 0 -- -- 90
2020-06-21 04:00:00 19.5 2 Nordeste 14 Nordeste 0 -- -- 86
2020-06-21 03:00:00 20.5 10 Nordeste 22 Este 0 -- -- 82
2020-06-21 02:00:00 21.3 10 Este 26 Este 0 -- -- 81
2020-06-21 01:00:00 21.8 10 Este 23 Este 0 -- -- 83
2020-06-21 00:00:00 23.3 8 Sudoeste 17 Oeste 0 -- -- 75
2020-06-20 23:00:00 24.8 11 Sudoeste 30 Sur 0 -- -- 69
2020-06-20 22:00:00 26.5 21 Sur 30 Sur 0 -- -- 63
2020-06-20 21:00:00 29.1 0 Calma 8 Nordeste 0 -- -- 49
2020-06-20 20:00:00 30.2 7 Este 12 Este 0 -- -- 45
2020-06-20 19:00:00 30.2 7 Este 15 Nordeste 0 -- -- 45
2020-06-20 18:00:00 29.8 7 Nordeste 20 Este 0 -- -- 46
2020-06-20 17:00:00 30.7 6 Oeste 18 Sur 0 -- -- 45
2020-06-20 16:00:00 29 8 Oeste 19 Sur 0 -- -- 48
2020-06-20 15:00:00 28 6 Este 17 Sudoeste 0 -- -- 53
2020-06-20 14:00:00 27 8 Sudeste 18 Sudeste 0 -- -- 57
2020-06-20 13:00:00 26 10 Sur 20 Sudoeste 0 -- -- 60
2020-06-20 12:00:00 24.4 8 Sur 16 Sudeste 0 -- -- 65
2020-06-20 11:00:00 22.5 8 Sur 14 Sur 0 -- -- 71
2020-06-20 10:00:00 22 4 Este 7 Este 0 -- -- 73
2020-06-20 09:00:00 18.9 3 Este 7 Nordeste 0 -- -- 84
2020-06-20 08:00:00 17.8 0 Calma 3 Oeste 0 -- -- 90
2020-06-20 07:00:00 15.5 0 Calma 4 Noroeste 0 -- -- 94
2020-06-20 06:00:00 15.7 0 Calma 4 Noroeste 0 -- -- 93
2020-06-20 05:00:00 16.1 2 Oeste 4 Oeste 0 -- -- 92
2020-06-20 04:00:00 16.9 0 Calma 6 Noroeste 0 -- -- 89
2020-06-20 03:00:00 17.8 0 Calma 12 Nordeste 0 -- -- 87
2020-06-20 02:00:00 18.3 3 Nordeste 13 Este 0 -- -- 87
2020-06-20 01:00:00 18.4 6 Nordeste 9 Nordeste 0 -- -- 87
2020-06-20 00:00:00 19.4 0 Calma 12 Sudoeste 0 -- -- 82
2020-06-19 23:00:00 20.6 4 Oeste 8 Este 0 -- -- 76
2020-06-19 22:00:00 21.6 3 Nordeste 17 Sudeste 0 -- -- 73
2020-06-19 21:00:00 23.8 9 Sudeste 26 Sudeste 0 -- -- 65
2020-06-19 20:00:00 25.5 12 Sudeste 30 Este 0 -- -- 59
2020-06-19 19:00:00 26 15 Este 25 Este 0 -- -- 57
2020-06-19 18:00:00 26.7 18 Este 26 Nordeste 0 -- -- 54
2020-06-19 17:00:00 26.6 10 Nordeste 23 Este 0 -- -- 53
2020-06-19 16:00:00 26.1 8 Este 21 Este 0 -- -- 54
2020-06-19 15:00:00 24.3 10 Este 26 Este 0 -- -- 60
2020-06-19 14:00:00 23.4 13 Este 22 Este 0 -- -- 63
2020-06-19 13:00:00 23.1 12 Este 24 Este 0 -- -- 64
2020-06-19 12:00:00 21.6 11 Este 21 Este 0 -- -- 69
2020-06-19 11:00:00 19.9 8 Nordeste 14 Este 0 -- -- 76
2020-06-19 10:00:00 18.5 3 Este 8 Nordeste 0 -- -- 86
2020-06-19 09:00:00 17.7 3 Este 8 Nordeste 0 -- -- 86
2020-06-19 08:00:00 16.5 0 Calma 5 Este 0 -- -- 90
2020-06-19 07:00:00 15.2 0 Calma 9 Nordeste 0 -- -- 92
2020-06-19 06:00:00 15.2 3 Oeste 6 Noroeste 0 -- -- 91
2020-06-19 05:00:00 15.3 2 Oeste 8 Nordeste 0 -- -- 89
2020-06-19 04:00:00 15.8 6 Nordeste 9 Nordeste 0 -- -- 86
2020-06-19 03:00:00 16.3 4 Este 10 Nordeste 0 -- -- 85
2020-06-19 02:00:00 17 3 Nordeste 8 Nordeste 0 -- -- 83
2020-06-19 01:00:00 17.9 0 Calma 8 Nordeste 0 -- -- 80
2020-06-19 00:00:00 19.6 3 Este 12 Sudeste 0 -- -- 72
2020-06-18 23:00:00 21 5 Sudeste 26 Sur 0 -- -- 68
2020-06-18 22:00:00 21.6 10 Sur 22 Sur 0 -- -- 66
2020-06-18 21:00:00 23.7 7 Este 13 Este 0 -- -- 53
2020-06-18 20:00:00 24.5 8 Sudeste 16 Este 0 -- -- 50
2020-06-18 19:00:00 24.7 10 Este 15 Este 0 -- -- 50
2020-06-18 18:00:00 24.8 8 Nordeste 15 Este 0 -- -- 48
2020-06-18 17:00:00 24.3 9 Nordeste 19 Nordeste 0 -- -- 50
2020-06-18 16:00:00 23.5 8 Nordeste 16 Nordeste 0 -- -- 55
2020-06-18 15:00:00 23 5 Sur 16 Este 0 -- -- 57
2020-06-18 14:00:00 21.8 8 Este 17 Nordeste 0 -- -- 57
2020-06-18 13:00:00 20.9 5 Norte 18 Norte 0 -- -- 65
2020-06-18 12:00:00 19.4 5 Este 14 Norte 0 -- -- 76
2020-06-18 11:00:00 18.1 5 Nordeste 10 Este 0.2 -- -- 82
2020-06-18 10:00:00 16.1 4 Nordeste 14 Nordeste 0 -- -- 91
2020-06-18 09:00:00 14.5 8 Este 21 Este 1 -- -- 96
2020-06-18 08:00:00 13.9 12 Este 21 Este 1.6 -- -- 94
2020-06-18 07:00:00 14.1 13 Oeste 28 Oeste 5.2 -- -- 91
2020-06-18 06:00:00 14.9 5 Nordeste 14 Este 2.2 -- -- 89
2020-06-18 05:00:00 14.9 6 Nordeste 22 Noroeste 0 -- -- 85
2020-06-18 04:00:00 15.8 16 Noroeste 25 Noroeste 0.8 -- -- 77
2020-06-18 03:00:00 17.2 3 Norte 8 Norte 0 -- -- 69
2020-06-18 02:00:00 17.5 3 Sur 18 Oeste 0 -- -- 76
2020-06-18 01:00:00 17.9 11 Oeste 19 Oeste 0 -- -- 72
2020-06-18 00:00:00 17.1 8 Oeste 13 Oeste 0 -- -- 64
2020-06-17 23:00:00 17.8 5 Oeste 9 Oeste 0 -- -- 61
2020-06-17 22:00:00 19.1 7 Oeste 9 Oeste 0 -- -- 57
2020-06-17 21:00:00 23.2 4 Oeste 15 Oeste 0 -- -- 44
2020-06-17 20:00:00 24.7 12 Noroeste 23 Noroeste 0 -- -- 35
2020-06-17 19:00:00 25 16 Oeste 31 Noroeste 0 -- -- 37
2020-06-17 18:00:00 25.3 13 Oeste 35 Oeste 0 -- -- 36
2020-06-17 17:00:00 25.1 13 Noroeste 28 Noroeste 0 -- -- 38
2020-06-17 16:00:00 24 13 Oeste 27 Noroeste 0 -- -- 38
2020-06-17 15:00:00 23.5 12 Noroeste 27 Noroeste 0 -- -- 43
2020-06-17 14:00:00 23.2 15 Noroeste 28 Oeste 0 -- -- 44
2020-06-17 13:00:00 21.6 12 Oeste 26 Oeste 0 -- -- 48
2020-06-17 12:00:00 19.5 12 Oeste 27 Oeste 0 -- -- 57
2020-06-17 11:00:00 18.1 13 Oeste 22 Noroeste 0 -- -- 63
2020-06-17 10:00:00 16.5 12 Oeste 19 Oeste 0 -- -- 72
2020-06-17 09:00:00 14.6 2 Oeste 10 Sudoeste 0 -- -- 85
2020-06-17 08:00:00 13.3 5 Oeste 9 Sudoeste 0 -- -- 89
2020-06-17 07:00:00 12.6 5 Oeste 14 Oeste 0 -- -- 90
2020-06-17 06:00:00 13 10 Sudoeste 17 Sudoeste 0 -- -- 89
2020-06-17 05:00:00 13.9 13 Sudoeste 25 Sudoeste 0 -- -- 88
2020-06-17 04:00:00 14.6 13 Sudoeste 20 Sudoeste 0 -- -- 89
2020-06-17 03:00:00 15 9 Sudoeste 15 Oeste 0 -- -- 88
2020-06-17 02:00:00 14.7 9 Sudoeste 16 Sudoeste 0 -- -- 89
2020-06-17 01:00:00 15.5 10 Sudoeste 16 Sudoeste 0 -- -- 87
2020-06-17 00:00:00 16 10 Sudoeste 20 Sudoeste 0 -- -- 86
2020-06-16 23:00:00 16.1 11 Sudoeste 19 Oeste 0.2 -- -- 88
2020-06-16 22:00:00 16.1 12 Oeste 19 Sudoeste 0.2 -- -- 86
2020-06-16 21:00:00 15.9 6 Oeste 15 Este 2.4 -- -- 84
2020-06-16 20:00:00 16.6 9 Norte 39 Noroeste 0.6 -- -- 79
2020-06-16 19:00:00 22.5 15 Este 24 Este 0 -- -- 63
2020-06-16 18:00:00 22.9 8 Sur 20 Sur 0 -- -- 61
2020-06-16 17:00:00 21.3 9 Sur 19 Sur 0 -- -- 67
2020-06-16 16:00:00 20.6 13 Sudoeste 22 Sudoeste 0 -- -- 71
2020-06-16 15:00:00 18.7 14 Sudoeste 24 Sur 0 -- -- 80
2020-06-16 14:00:00 17 8 Sudoeste 13 Sudoeste 1.2 -- -- 89
2020-06-16 13:00:00 17 12 Sudoeste 16 Sudoeste 1 -- -- 89
2020-06-16 12:00:00 17 12 Sudoeste 20 Sudoeste 0.4 -- -- 89
2020-06-16 11:00:00 17.5 5 Sudoeste 8 Oeste 0.2 -- -- 89
2020-06-16 10:00:00 16.9 3 Oeste 6 Sudoeste 0.8 -- -- 89
2020-06-16 09:00:00 16.7 4 Oeste 13 Noroeste 0.2 -- -- 91
2020-06-16 08:00:00 16.6 5 Noroeste 11 Noroeste 0 -- -- 91
2020-06-16 07:00:00 16.5 5 Sur 8 Sur 0.4 -- -- 90
2020-06-16 06:00:00 17 2 Noroeste 15 Oeste 1 -- -- 88
2020-06-16 05:00:00 17.6 6 Oeste 14 Nordeste 0 -- -- 89
2020-06-16 04:00:00 17.6 4 Oeste 10 Oeste 0 -- -- 90
2020-06-16 03:00:00 17.7 5 Oeste 13 Oeste 0.8 -- -- 87
2020-06-16 02:00:00 18.2 4 Oeste 17 Oeste 0.6 -- -- 83
2020-06-16 01:00:00 19.5 9 Oeste 24 Noroeste 0.2 -- -- 75
2020-06-16 00:00:00 23 7 Norte 25 Oeste 0 -- -- 49
2020-06-15 23:00:00 23 13 Oeste 19 Oeste 0 -- -- 49
2020-06-15 22:00:00 23.9 4 Oeste 9 Oeste 0 -- -- 48
2020-06-15 21:00:00 26 5 Oeste 27 Oeste 0 -- -- 39
2020-06-15 20:00:00 28.1 13 Noroeste 26 Noroeste 0 -- -- 35
2020-06-15 19:00:00 28.6 12 Noroeste 26 Noroeste 0 -- -- 34
2020-06-15 18:00:00 28.6 6 Noroeste 32 Noroeste 0 -- -- 33
2020-06-15 17:00:00 28.2 11 Noroeste 26 Oeste 0 -- -- 36
2020-06-15 16:00:00 27 14 Noroeste 26 Noroeste 0 -- -- 37
2020-06-15 15:00:00 26.7 14 Noroeste 35 Oeste 0 -- -- 38
2020-06-15 14:00:00 26.6 17 Noroeste 28 Norte 0 -- -- 37
2020-06-15 13:00:00 26.3 9 Norte 23 Noroeste 0 -- -- 41
2020-06-15 12:00:00 24.7 7 Norte 18 Oeste 0 -- -- 44
2020-06-15 11:00:00 22.6 5 Sur 17 Oeste 0 -- -- 51
2020-06-15 10:00:00 20.1 8 Sudoeste 21 Oeste 0 -- -- 57
2020-06-15 09:00:00 18.7 13 Oeste 26 Oeste 0 -- -- 60
2020-06-15 08:00:00 17.9 8 Sudoeste 23 Oeste 0 -- -- 65
2020-06-15 07:00:00 17.1 8 Sudoeste 13 Sudoeste 0 -- -- 68
2020-06-15 06:00:00 18.1 5 Sudoeste 12 Oeste 0 -- -- 63
2020-06-15 05:00:00 18.8 6 Oeste 12 Oeste 0 -- -- 62
2020-06-15 04:00:00 20.4 9 Oeste 20 Noroeste 0 -- -- 55
2020-06-15 03:00:00 20.7 13 Oeste 24 Oeste 0 -- -- 55
2020-06-15 02:00:00 20.8 14 Oeste 20 Oeste 0 -- -- 53
2020-06-15 01:00:00 20.9 11 Oeste 17 Oeste 0 -- -- 53
2020-06-15 00:00:00 21.4 3 Oeste 6 Oeste 0 -- -- 52
2020-06-14 23:00:00 22.6 0 Calma 8 Oeste 0 -- -- 48
2020-06-14 22:00:00 23.8 6 Oeste 13 Oeste 0 -- -- 43
2020-06-14 21:00:00 25.7 6 Noroeste 17 Oeste 0 -- -- 37
2020-06-14 20:00:00 27.4 13 Noroeste 21 Noroeste 0 -- -- 33
2020-06-14 19:00:00 28.2 9 Noroeste 22 Sudoeste 0 -- -- 33
2020-06-14 18:00:00 28 10 Oeste 23 Oeste 0 -- -- 32
2020-06-14 17:00:00 27.7 11 Sudoeste 23 Oeste 0 -- -- 32
2020-06-14 16:00:00 26.9 7 Noroeste 22 Oeste 0 -- -- 33
2020-06-14 15:00:00 26.8 10 Sudoeste 23 Sudoeste 0 -- -- 35
2020-06-14 14:00:00 25.9 5 Norte 17 Este 0 -- -- 39
2020-06-14 13:00:00 24.8 6 Nordeste 13 Este 0 -- -- 40
2020-06-14 12:00:00 23.4 8 Nordeste 16 Nordeste 0 -- -- 46
2020-06-14 11:00:00 21.2 9 Este 15 Este 0 -- -- 57
2020-06-14 10:00:00 19.1 9 Nordeste 12 Este 0 -- -- 63
2020-06-14 09:00:00 18.2 4 Sudoeste 9 Sur 0 -- -- 64
2020-06-14 08:00:00 14.4 0 Calma 7 Oeste 0 -- -- 78
2020-06-14 07:00:00 12.2 2 Sudoeste 6 Oeste 0 -- -- 83
2020-06-14 06:00:00 12.7 4 Nordeste 7 Nordeste 0 -- -- 81
2020-06-14 05:00:00 13 0 Calma 12 Nordeste 0 -- -- 76
2020-06-14 04:00:00 13.8 7 Oeste 11 Oeste 0 -- -- 71
2020-06-14 03:00:00 14.6 9 Oeste 13 Oeste 0 -- -- 67
2020-06-14 02:00:00 15.1 6 Oeste 12 Oeste 0 -- -- 67
2020-06-14 01:00:00 16.3 8 Oeste 12 Oeste 0 -- -- 61
2020-06-14 00:00:00 15.9 5 Oeste 12 Sudoeste 0 -- -- 63
2020-06-13 23:00:00 16.7 5 Oeste 9 Oeste 0 -- -- 59
2020-06-13 22:00:00 18.3 6 Oeste 12 Oeste 0 -- -- 54
2020-06-13 21:00:00 22.8 7 Oeste 27 Oeste 0 -- -- 39
2020-06-13 20:00:00 24.1 19 Oeste 36 Oeste 0 -- -- 35
2020-06-13 19:00:00 24.8 17 Oeste 37 Noroeste 0 -- -- 34
2020-06-13 18:00:00 24.9 19 Oeste 39 Noroeste 0 -- -- 35
2020-06-13 17:00:00 24.5 24 Oeste 41 Oeste 0 -- -- 35
2020-06-13 16:00:00 23 14 Noroeste 34 Noroeste 0 -- -- 39
2020-06-13 15:00:00 23.7 18 Oeste 31 Oeste 0 -- -- 39
2020-06-13 14:00:00 22.9 15 Noroeste 37 Oeste 0 -- -- 42
2020-06-13 13:00:00 22 18 Oeste 36 Oeste 0 -- -- 43
2020-06-13 12:00:00 21.7 21 Oeste 37 Oeste 0 -- -- 47
2020-06-13 11:00:00 20.3 17 Oeste 28 Noroeste 0 -- -- 52
2020-06-13 10:00:00 19.3 12 Noroeste 21 Noroeste 0 -- -- 59
2020-06-13 09:00:00 17.3 10 Noroeste 17 Noroeste 0 -- -- 65
2020-06-13 08:00:00 15 3 Sudeste 8 Oeste 0 -- -- 78
2020-06-13 07:00:00 12.1 5 Noroeste 12 Oeste 0 -- -- 87
2020-06-13 06:00:00 12 4 Oeste 9 Noroeste 0 -- -- 87
2020-06-13 05:00:00 12.8 5 Oeste 8 Oeste 0 -- -- 85
2020-06-13 04:00:00 14.2 4 Oeste 14 Noroeste 0 -- -- 79
2020-06-13 03:00:00 15.3 8 Noroeste 17 Noroeste 0 -- -- 70
2020-06-13 02:00:00 14.9 9 Oeste 24 Noroeste 0.2 -- -- 77
2020-06-13 01:00:00 15.9 6 Noroeste 36 Oeste 1.2 -- -- 78
2020-06-13 00:00:00 18.2 20 Oeste 35 Noroeste 0 -- -- 61
2020-06-12 23:00:00 17.8 3 Noroeste 5 Noroeste 0 -- -- 62
2020-06-12 22:00:00 18.9 3 Norte 10 Este 0 -- -- 55
2020-06-12 21:00:00 21.8 5 Este 14 Este 0 -- -- 43
2020-06-12 20:00:00 22.9 8 Este 18 Este 0 -- -- 41
2020-06-12 19:00:00 24 7 Este 13 Este 0 -- -- 37
2020-06-12 18:00:00 22.8 5 Este 17 Este 0 -- -- 41
2020-06-12 17:00:00 22.4 8 Nordeste 16 Nordeste 0 -- -- 40
2020-06-12 16:00:00 22.2 7 Norte 26 Oeste 0 -- -- 40
2020-06-12 15:00:00 22.9 14 Noroeste 28 Noroeste 0 -- -- 42
2020-06-12 14:00:00 21.4 12 Oeste 39 Oeste 0 -- -- 44
2020-06-12 13:00:00 21.2 19 Oeste 42 Oeste 0 -- -- 42
2020-06-12 12:00:00 20.1 21 Oeste 37 Oeste 0 -- -- 45
2020-06-12 11:00:00 19.2 10 Noroeste 22 Noroeste 0 -- -- 53
2020-06-12 10:00:00 18.3 5 Noroeste 18 Norte 0 -- -- 67
2020-06-12 09:00:00 16.1 6 Noroeste 10 Oeste 0.2 -- -- 78
2020-06-12 08:00:00 15.3 5 Noroeste 13 Noroeste 0 -- -- 83
2020-06-12 07:00:00 13.9 6 Oeste 14 Oeste 0 -- -- 90
2020-06-12 06:00:00 14.1 10 Sudoeste 14 Sudoeste 0 -- -- 93
2020-06-12 05:00:00 14.4 3 Noroeste 10 Oeste 0 -- -- 92
2020-06-12 04:00:00 15.6 9 Oeste 16 Oeste 0 -- -- 91
2020-06-12 03:00:00 16.2 6 Oeste 9 Oeste 0 -- -- 94
2020-06-12 02:00:00 15.8 6 Sudoeste 14 Oeste 0 -- -- 92
2020-06-12 01:00:00 16.5 28 Oeste 49 Oeste 6.2 -- -- 88
2020-06-12 00:00:00 18.4 9 Nordeste 14 Nordeste 0 -- -- 80